createdAt,value
2023-05-13T00:02:37.101Z,30.10
2023-05-13T00:05:40.584Z,31.65
2023-05-13T00:08:43.909Z,31.08
2023-05-13T00:11:47.294Z,32.22
2023-05-13T00:14:50.655Z,33.45
2023-05-13T00:17:55.274Z,34.08
2023-05-13T00:20:58.515Z,36.00
2023-05-13T00:24:01.851Z,37.25
2023-05-13T00:27:05.544Z,37.35
2023-05-13T00:30:10.143Z,36.47
2023-05-13T00:33:14.832Z,36.30
2023-05-13T00:36:18.142Z,36.85
2023-05-13T00:39:21.382Z,36.58
2023-05-13T00:42:24.673Z,35.50
2023-05-13T00:45:27.954Z,36.88
2023-05-13T00:48:33.583Z,34.90
2023-05-13T00:51:37.967Z,35.40
2023-05-13T00:54:41.908Z,35.17
2023-05-13T00:57:45.235Z,36.47
2023-05-13T01:00:56.780Z,35.45
2023-05-13T01:04:10.601Z,36.05
2023-05-13T01:07:22.608Z,34.25
2023-05-13T01:10:35.794Z,33.63
2023-05-13T01:13:43.194Z,34.22
2023-05-13T01:16:51.638Z,35.13
2023-05-13T01:19:58.746Z,34.55
2023-05-13T01:23:04.040Z,34.90
2023-05-13T01:26:07.681Z,34.25
2023-05-13T01:29:11.401Z,34.35
2023-05-13T01:32:16.247Z,34.50
2023-05-13T01:35:20.501Z,34.78
2023-05-13T01:38:27.851Z,34.13
2023-05-13T01:41:33.005Z,33.40
2023-05-13T01:44:36.605Z,34.75
2023-05-13T01:47:39.814Z,34.75
2023-05-13T01:50:44.100Z,34.92
2023-05-13T01:53:49.296Z,34.88
2023-05-13T01:56:52.889Z,34.85
2023-05-13T02:03:26.511Z,25.95
2023-05-13T02:06:29.977Z,36.33
2023-05-13T02:09:34.846Z,37.00
2023-05-13T02:12:38.175Z,35.80
2023-05-13T02:15:44.025Z,36.53
2023-05-13T02:18:47.280Z,38.65
2023-05-13T02:21:50.536Z,36.28
2023-05-13T02:24:55.212Z,34.92
2023-05-13T02:27:59.591Z,35.42
2023-05-13T02:31:03.028Z,35.42
2023-05-13T02:34:06.301Z,38.53
2023-05-13T02:37:09.517Z,40.58
2023-05-13T02:43:27.468Z,42.72
2023-05-13T02:46:35.737Z,44.55
2023-05-13T02:49:39.120Z,44.25
2023-05-13T02:52:43.194Z,43.50
2023-05-13T02:55:47.967Z,42.35
2023-05-13T02:58:51.214Z,43.45
2023-05-13T03:01:54.471Z,41.03
2023-05-13T03:04:58.073Z,41.33
2023-05-13T03:08:01.327Z,41.92
2023-05-13T03:11:08.232Z,41.78
2023-05-13T03:14:11.585Z,40.90
2023-05-13T03:17:15.029Z,42.83
2023-05-13T03:20:18.835Z,43.22
2023-05-13T03:23:22.520Z,46.63
2023-05-13T03:26:29.484Z,50.47
2023-05-13T03:29:33.449Z,49.20
2023-05-13T03:32:37.092Z,49.35
2023-05-13T03:35:40.765Z,49.85
2023-05-13T03:38:44.488Z,48.25
2023-05-13T03:41:49.212Z,48.95
2023-05-13T03:44:52.771Z,47.42
2023-05-13T03:47:56.298Z,44.15
2023-05-13T03:51:00.929Z,44.92
2023-05-13T03:54:04.409Z,45.05
2023-05-13T03:57:09.910Z,41.78
2023-05-13T04:00:15.184Z,43.55
2023-05-13T04:03:19.061Z,41.85
2023-05-13T04:06:22.430Z,134.63
2023-05-13T04:09:25.674Z,42.35
2023-05-13T04:12:30.966Z,39.00
2023-05-13T04:15:34.269Z,35.10
2023-05-13T04:18:37.582Z,33.50
2023-05-13T04:21:40.823Z,32.63
2023-05-13T04:24:44.231Z,29.50
2023-05-13T04:27:48.931Z,27.75
2023-05-13T04:30:59.938Z,27.48
2023-05-13T04:34:03.244Z,25.75
2023-05-13T04:37:06.836Z,24.50
2023-05-13T04:40:11.394Z,22.30
2023-05-13T04:43:16.236Z,20.33
2023-05-13T04:46:27.227Z,18.42
2023-05-13T04:49:30.631Z,17.08
2023-05-13T04:52:34.520Z,17.73
2023-05-13T04:55:37.876Z,15.50
2023-05-13T04:58:43.348Z,13.50
2023-05-13T05:01:49.060Z,17.90
2023-05-13T05:04:53.110Z,28.23
2023-05-13T05:07:56.434Z,15.95
2023-05-13T05:11:01.750Z,13.82
2023-05-13T05:14:08.226Z,17.50
2023-05-13T05:17:11.647Z,13.18
2023-05-13T05:20:15.166Z,13.48
2023-05-13T05:23:19.440Z,13.13
2023-05-13T05:26:22.922Z,13.20
2023-05-13T05:29:27.664Z,12.73
2023-05-13T05:32:31.640Z,13.75
2023-05-13T05:35:37.125Z,14.38
2023-05-13T05:38:42.027Z,14.38
2023-05-13T05:41:45.447Z,14.70
2023-05-13T05:44:50.186Z,14.18
2023-05-13T05:47:55.347Z,12.93
2023-05-13T05:50:58.924Z,11.55
2023-05-13T05:54:06.760Z,10.07
2023-05-13T05:57:11.026Z,8.68
2023-05-13T06:00:16.736Z,8.07
2023-05-13T06:03:20.148Z,7.82
2023-05-13T06:06:23.958Z,7.25
2023-05-13T06:09:27.280Z,8.13
2023-05-13T06:12:30.761Z,7.78
2023-05-13T06:15:35.645Z,8.32
2023-05-13T06:18:38.997Z,7.75
2023-05-13T06:21:43.185Z,6.57
2023-05-13T06:24:46.446Z,6.72
2023-05-13T06:27:50.168Z,7.03
2023-05-13T06:30:58.667Z,6.60
2023-05-13T06:34:01.992Z,6.28
2023-05-13T06:37:05.525Z,7.00
2023-05-13T06:40:09.973Z,6.10
2023-05-13T06:43:18.145Z,6.45
2023-05-13T06:46:26.238Z,8.88
2023-05-13T06:49:29.836Z,6.07
2023-05-13T06:52:33.105Z,5.60
2023-05-13T06:55:41.495Z,5.97
2023-05-13T06:58:45.043Z,5.97
2023-05-13T07:01:49.778Z,5.65
2023-05-13T07:04:53.468Z,5.90
2023-05-13T07:07:56.803Z,5.78
2023-05-13T07:11:00.088Z,5.43
2023-05-13T07:14:03.469Z,5.07
2023-05-13T07:17:08.334Z,5.30
2023-05-13T07:20:12.947Z,5.95
2023-05-13T07:23:16.202Z,4.68
2023-05-13T07:26:19.547Z,4.85
2023-05-13T07:29:25.326Z,4.72
2023-05-13T07:32:31.999Z,5.15
2023-05-13T07:35:35.411Z,5.05
2023-05-13T07:38:38.661Z,5.25
2023-05-13T07:41:42.046Z,4.10
2023-05-13T07:44:45.894Z,4.43
2023-05-13T07:47:50.612Z,4.40
2023-05-13T07:50:53.893Z,4.20
2023-05-13T07:53:57.145Z,3.58
2023-05-13T07:57:00.374Z,3.80
2023-05-13T08:00:04.276Z,4.55
2023-05-13T08:03:17.524Z,4.13
2023-05-13T08:06:21.074Z,4.00
2023-05-13T08:09:24.535Z,4.57
2023-05-13T08:12:27.908Z,4.00
2023-05-13T08:15:31.304Z,4.38
2023-05-13T08:18:36.109Z,4.65
2023-05-13T08:21:39.409Z,4.22
2023-05-13T08:24:43.220Z,4.45
2023-05-13T08:27:46.621Z,4.43
2023-05-13T08:30:49.937Z,3.85
2023-05-13T08:33:54.979Z,3.90
2023-05-13T08:36:58.187Z,4.10
2023-05-13T08:40:02.570Z,4.22
2023-05-13T08:43:06.972Z,4.13
2023-05-13T08:46:12.225Z,4.28
2023-05-13T08:49:17.355Z,4.25
2023-05-13T08:52:22.597Z,4.20
2023-05-13T08:55:26.167Z,4.13
2023-05-13T08:58:29.671Z,3.60
2023-05-13T09:01:33.511Z,3.55
2023-05-13T09:04:41.625Z,3.78
2023-05-13T09:07:45.459Z,3.70
2023-05-13T09:10:49.151Z,3.95
2023-05-13T09:14:01.596Z,3.95
2023-05-13T09:17:05.529Z,3.90
2023-05-13T09:20:12.903Z,5.03
2023-05-13T09:23:17.084Z,4.97
2023-05-13T09:26:29.068Z,4.35
2023-05-13T09:29:33.321Z,4.72
2023-05-13T09:32:37.493Z,4.80
2023-05-13T09:35:44.805Z,5.63
2023-05-13T09:38:49.233Z,4.78
2023-05-13T09:41:53.368Z,5.43
2023-05-13T09:44:57.344Z,4.93
2023-05-13T09:48:00.741Z,5.03
2023-05-13T09:51:06.206Z,5.35
2023-05-13T09:54:09.513Z,4.28
2023-05-13T09:57:15.980Z,5.03
2023-05-13T10:00:29.203Z,4.50
2023-05-13T10:03:36.027Z,4.43
2023-05-13T10:06:41.049Z,4.65
2023-05-13T10:09:47.051Z,4.32
2023-05-13T10:12:52.222Z,4.00
2023-05-13T10:15:57.041Z,4.00
2023-05-13T10:19:01.379Z,3.85
2023-05-13T10:22:06.852Z,4.13
2023-05-13T10:25:11.533Z,5.90
2023-05-13T10:28:17.512Z,33.33
2023-05-13T10:31:20.976Z,4.22
2023-05-13T10:34:25.392Z,3.78
2023-05-13T10:37:51.463Z,3.90
2023-05-13T10:41:09.591Z,4.90
2023-05-13T10:44:13.332Z,3.85
2023-05-13T10:47:18.658Z,3.47
2023-05-13T10:50:26.900Z,3.33
2023-05-13T10:53:32.572Z,3.58
2023-05-13T10:56:36.221Z,3.42
2023-05-13T11:00:15.618Z,3.25
2023-05-13T11:03:37.726Z,3.10
2023-05-13T11:06:42.954Z,3.63
2023-05-13T11:09:52.148Z,3.67
2023-05-13T11:13:21.046Z,3.63
2023-05-13T11:16:25.012Z,3.28
2023-05-13T11:19:30.135Z,2.92
2023-05-13T11:22:33.798Z,3.05
2023-05-13T11:25:38.582Z,2.90
2023-05-13T11:29:05.466Z,2.88
2023-05-13T11:32:08.868Z,2.72
2023-05-13T11:35:12.513Z,3.25
2023-05-13T11:38:24.741Z,2.90
2023-05-13T11:41:33.179Z,3.10
2023-05-13T11:44:37.657Z,3.00
2023-05-13T11:47:40.956Z,2.90
2023-05-13T11:50:44.256Z,3.03
2023-05-13T11:53:47.700Z,3.63
2023-05-13T11:56:52.352Z,3.30
2023-05-13T11:59:58.137Z,3.05
2023-05-13T12:03:03.094Z,2.90
2023-05-13T12:06:06.876Z,2.90
2023-05-13T12:09:10.648Z,3.10
2023-05-13T12:12:16.471Z,2.75
2023-05-13T12:15:22.117Z,2.75
2023-05-13T12:18:25.824Z,3.08
2023-05-13T12:21:34.434Z,2.60
2023-05-13T12:24:37.852Z,2.70
2023-05-13T12:27:42.691Z,2.70
2023-05-13T12:30:52.357Z,2.72
2023-05-13T12:33:55.620Z,2.80
2023-05-13T12:37:09.977Z,2.78
2023-05-13T12:40:14.719Z,4.28
2023-05-13T12:43:20.702Z,3.67
2023-05-13T12:46:24.437Z,2.80
2023-05-13T12:49:27.705Z,2.72
2023-05-13T12:52:31.056Z,3.00
2023-05-13T12:55:39.837Z,3.22
2023-05-13T12:58:44.969Z,2.95
2023-05-13T13:01:49.902Z,2.83
2023-05-13T13:04:53.606Z,3.63
2023-05-13T13:07:57.374Z,3.08
2023-05-13T13:11:01.263Z,3.40
2023-05-13T13:14:06.116Z,3.83
2023-05-13T13:17:09.484Z,4.13
2023-05-13T13:20:13.555Z,3.70
2023-05-13T13:23:16.919Z,7.10
2023-05-13T13:26:20.971Z,5.97
2023-05-13T13:29:25.690Z,8.10
2023-05-13T13:32:29.132Z,5.30
2023-05-13T13:35:32.520Z,3.60
2023-05-13T13:38:35.844Z,3.85
2023-05-13T13:41:39.357Z,3.90
2023-05-13T13:44:44.057Z,7.47
2023-05-13T13:47:47.364Z,5.60
2023-05-13T13:50:52.777Z,3.50
2023-05-13T13:53:56.361Z,3.75
2023-05-13T13:56:59.706Z,3.70
2023-05-13T14:00:05.188Z,3.45
2023-05-13T14:03:09.407Z,3.88
2023-05-13T14:06:12.910Z,3.47
2023-05-13T14:09:16.592Z,3.80
2023-05-13T14:12:20.008Z,2.88
2023-05-13T14:15:28.588Z,3.33
2023-05-13T14:18:31.950Z,3.22
2023-05-13T14:21:35.248Z,3.42
2023-05-13T14:24:38.698Z,3.50
2023-05-13T14:27:42.171Z,3.42
2023-05-13T14:30:46.761Z,3.72
2023-05-13T14:33:50.271Z,3.42
2023-05-13T14:36:53.658Z,3.50
2023-05-13T14:39:57.331Z,3.65
2023-05-13T14:43:01.321Z,3.88
2023-05-13T14:46:06.082Z,3.42
2023-05-13T14:49:09.828Z,3.45
2023-05-13T14:52:13.071Z,3.70
2023-05-13T14:55:16.550Z,5.10
2023-05-13T14:58:20.038Z,3.65
2023-05-13T15:01:24.851Z,3.25
2023-05-13T15:04:28.224Z,3.70
2023-05-13T15:07:31.605Z,3.20
2023-05-13T15:10:34.934Z,3.20
2023-05-13T15:13:39.256Z,3.40
2023-05-13T15:16:43.903Z,26.50
2023-05-13T15:19:47.231Z,3.58
2023-05-13T15:22:50.588Z,3.72
2023-05-13T15:25:53.894Z,2.90
2023-05-13T15:28:57.129Z,3.40
2023-05-13T15:32:01.975Z,3.03
2023-05-13T15:35:05.824Z,3.15
2023-05-13T15:38:10.739Z,3.03
2023-05-13T15:41:14.073Z,3.35
2023-05-13T15:44:17.388Z,3.03
2023-05-13T15:47:22.256Z,3.03
2023-05-13T15:50:27.087Z,2.72
2023-05-13T15:53:30.432Z,3.42
2023-05-13T15:56:33.919Z,3.30
2023-05-13T15:59:37.206Z,3.47
2023-05-13T16:02:43.952Z,3.42
2023-05-13T16:05:47.774Z,4.32
2023-05-13T16:08:51.116Z,3.53
2023-05-13T16:11:54.440Z,3.97
2023-05-13T16:14:58.016Z,3.85
2023-05-13T16:18:02.805Z,3.65
2023-05-13T16:21:06.755Z,7.13
2023-05-13T16:24:10.072Z,4.75
2023-05-13T16:27:13.831Z,5.10
2023-05-13T16:30:17.411Z,5.30
2023-05-13T16:33:22.064Z,5.25
2023-05-13T16:36:26.833Z,5.35
2023-05-13T16:39:30.483Z,6.35
2023-05-13T16:42:33.820Z,6.68
2023-05-13T16:45:38.914Z,6.40
2023-05-13T16:48:43.668Z,25.08
2023-05-13T16:51:47.062Z,8.32
2023-05-13T16:54:50.400Z,7.28
2023-05-13T16:57:53.990Z,6.82
2023-05-13T17:00:59.231Z,7.65
2023-05-13T17:04:04.289Z,7.07
2023-05-13T17:07:08.214Z,8.35
2023-05-13T17:10:12.019Z,7.65
2023-05-13T17:13:15.365Z,7.80
2023-05-13T17:16:18.864Z,8.85
2023-05-13T17:19:23.612Z,8.60
2023-05-13T17:22:27.030Z,9.27
2023-05-13T17:25:30.341Z,9.90
2023-05-13T17:28:34.342Z,10.20
2023-05-13T17:31:37.825Z,10.20
2023-05-13T17:34:42.571Z,10.60
2023-05-13T17:37:45.855Z,11.88
2023-05-13T17:40:49.067Z,11.60
2023-05-13T17:43:52.367Z,11.55
2023-05-13T17:46:56.180Z,11.32
2023-05-13T17:50:00.972Z,12.32
2023-05-13T17:53:04.250Z,11.35
2023-05-13T17:56:10.476Z,12.55
2023-05-13T17:59:13.781Z,12.38
2023-05-13T18:02:17.281Z,11.73
2023-05-13T18:05:22.420Z,12.38
2023-05-13T18:08:26.092Z,11.95
2023-05-13T18:11:29.443Z,13.32
2023-05-13T18:14:33.615Z,12.48
2023-05-13T18:17:37.024Z,17.48
2023-05-13T18:20:42.067Z,28.77
2023-05-13T18:23:46.691Z,28.70
2023-05-13T18:26:49.932Z,20.08
2023-05-13T18:29:53.271Z,16.95
2023-05-13T18:32:56.646Z,15.73
2023-05-13T18:36:01.313Z,16.55
2023-05-13T18:39:04.614Z,16.85
2023-05-13T18:42:08.058Z,18.50
2023-05-13T18:45:11.856Z,49.45
2023-05-13T18:48:15.244Z,21.35
2023-05-13T18:51:20.986Z,19.90
2023-05-13T18:54:25.697Z,20.90
2023-05-13T18:57:29.014Z,21.10
2023-05-13T19:00:32.239Z,23.25
2023-05-13T19:03:36.305Z,23.50
2023-05-13T19:06:43.059Z,22.90
2023-05-13T19:09:47.854Z,24.05
2023-05-13T19:12:51.646Z,23.73
2023-05-13T19:15:55.207Z,25.23
2023-05-13T19:18:58.569Z,25.02
2023-05-13T19:22:03.427Z,25.63
2023-05-13T19:25:07.342Z,24.88
2023-05-13T19:28:11.198Z,24.70
2023-05-13T19:31:14.582Z,23.80
2023-05-13T19:34:18.355Z,26.17
2023-05-13T19:37:23.219Z,25.52
2023-05-13T19:40:26.490Z,24.10
2023-05-13T19:43:29.761Z,22.55
2023-05-13T19:46:33.161Z,26.40
2023-05-13T19:49:36.505Z,28.50
2023-05-13T19:52:43.690Z,39.13
2023-05-13T19:55:47.376Z,45.42
2023-05-13T19:58:50.878Z,43.58
2023-05-13T20:01:54.075Z,44.53
2023-05-13T20:04:57.435Z,38.85
2023-05-13T20:08:02.077Z,35.83
2023-05-13T20:11:05.354Z,32.40
2023-05-13T20:14:08.610Z,27.73
2023-05-13T20:17:12.507Z,28.70
2023-05-13T20:20:16.106Z,27.33
2023-05-13T20:23:21.074Z,28.02
2023-05-13T20:26:25.698Z,26.75
2023-05-13T20:29:34.151Z,28.05
2023-05-13T20:32:37.423Z,27.63
2023-05-13T20:35:40.852Z,26.63
2023-05-13T20:38:45.622Z,27.38
2023-05-13T20:41:48.910Z,26.02
2023-05-13T20:44:53.240Z,26.33
2023-05-13T20:47:59.268Z,25.60
2023-05-13T20:51:03.687Z,27.08
2023-05-13T20:54:09.308Z,28.25
2023-05-13T20:57:12.625Z,28.08
2023-05-13T21:00:16.496Z,27.55
2023-05-13T21:03:19.895Z,28.23
2023-05-13T21:06:24.229Z,30.13
2023-05-13T21:09:29.071Z,30.00
2023-05-13T21:12:33.560Z,30.35
2023-05-13T21:15:38.957Z,31.70
2023-05-13T21:18:44.050Z,29.38
2023-05-13T21:21:47.972Z,28.95
2023-05-13T21:24:52.721Z,28.63
2023-05-13T21:27:56.082Z,29.73
2023-05-13T21:30:59.321Z,30.33
2023-05-13T21:34:02.600Z,27.48
2023-05-13T21:37:06.116Z,27.08
2023-05-13T21:40:11.708Z,28.15
2023-05-13T21:43:14.990Z,27.42
2023-05-13T21:46:18.178Z,27.38
2023-05-13T21:49:21.624Z,27.95
2023-05-13T21:52:24.912Z,26.65
2023-05-13T21:55:33.891Z,26.58
2023-05-13T21:58:37.080Z,29.75
2023-05-13T22:01:40.248Z,28.75
2023-05-13T22:04:43.421Z,30.02
2023-05-13T22:07:46.782Z,29.05
2023-05-13T22:10:51.458Z,30.77
2023-05-13T22:13:54.783Z,31.30
2023-05-13T22:17:08.401Z,30.38
2023-05-13T22:20:13.834Z,29.00
2023-05-13T22:23:17.021Z,30.48
2023-05-13T22:26:21.768Z,30.13
2023-05-13T22:29:24.915Z,30.02
2023-05-13T22:32:28.213Z,29.50
2023-05-13T22:35:32.130Z,29.75
2023-05-13T22:38:35.297Z,29.65
2023-05-13T22:41:39.864Z,31.15
2023-05-13T22:44:43.350Z,31.77
2023-05-13T22:47:46.772Z,29.83
2023-05-13T22:50:50.200Z,30.77
2023-05-13T22:53:53.574Z,32.03
2023-05-13T22:56:59.190Z,30.85
2023-05-13T23:00:02.441Z,30.77
2023-05-13T23:03:06.158Z,31.70
2023-05-13T23:06:10.256Z,31.13
2023-05-13T23:09:13.648Z,31.73
2023-05-13T23:12:18.492Z,33.05
2023-05-13T23:15:21.922Z,33.47
2023-05-13T23:18:25.933Z,34.15
2023-05-13T23:21:29.265Z,33.83
2023-05-13T23:24:32.584Z,36.75
2023-05-13T23:27:37.249Z,36.15
2023-05-13T23:30:40.755Z,38.00
2023-05-13T23:33:44.306Z,37.47
2023-05-13T23:36:47.625Z,37.95
2023-05-13T23:39:51.100Z,39.40
2023-05-13T23:42:55.897Z,39.00
2023-05-13T23:45:59.414Z,37.55
2023-05-13T23:49:02.852Z,38.40
2023-05-13T23:52:06.718Z,38.45
2023-05-13T23:55:10.131Z,38.35
2023-05-13T23:58:14.774Z,39.85
